METAR Data
IDs: Format: Raw Decoded Include TAF

Data at: 1542 UTC 17 Nov 2019

METAR for:KRYW (Lago Vista/Allen Arp, TX, US)
Text:KRYW 171535Z AUTO 20006KT 10SM OVC020 11/08 A3008 RMK AO2 T01120078
Temperature: 11.2°C ( 52°F)
Dewpoint: 7.8°C ( 46°F) [RH = 80%]
Pressure (altimeter):30.08 inches Hg (1018.7 mb)
Winds:from the SSW (200 degrees) at 7 MPH (6 knots; 3.1 m/s)
Visibility:10 or more sm (16+ km)
Ceiling:2000 feet AGL
Clouds: overcast cloud deck at 2000 feet AGL
QC Flag:automated observation with no human augmentation